ZKJEE NZNS-NZWB
Flight info
| Callsign | ZKJEE |
|---|---|
| Flight time | 0h 26m |
| Altitude | 10000 |
| Route | LEMUT DCT SUPEN |
| Aircraft | DHC6/L-SDFGR/C |
Departure
| Time | 2026-04-29 02:43 |
|---|---|
| Airport | Nelson Airport (NZNS) |
Arrival
| Time | 2026-04-29 03:10 |
|---|---|
| Airport | Woodbourne Airport (NZWB) |
| Time | Latitude | Longitude | Altitude | Speed | Heading |
|---|---|---|---|---|---|
| 2026-04-29 02:38 | -41.30121 | 173.21919 | 15 ft | 0 kts | 41° |
| 2026-04-29 02:42 | -41.30120 | 173.21919 | 15 ft | 0 kts | 41° |
| 2026-04-29 02:42 | -41.30112 | 173.21929 | 15 ft | 14 kts | 41° |
| 2026-04-29 02:43 | -41.29800 | 173.22287 | 16 ft | 94 kts | 41° |
| 2026-04-29 02:43 | -41.29210 | 173.22966 | 109 ft | 118 kts | 41° |
| 2026-04-29 02:43 | -41.28583 | 173.23614 | 429 ft | 113 kts | 25° |
| 2026-04-29 02:43 | -41.27848 | 173.23955 | 773 ft | 111 kts | 15° |
| 2026-04-29 02:44 | -41.27104 | 173.24296 | 1099 ft | 115 kts | 17° |
| 2026-04-29 02:44 | -41.26370 | 173.24688 | 1459 ft | 116 kts | 18° |
| 2026-04-29 02:44 | -41.25607 | 173.25121 | 1822 ft | 121 kts | 22° |
| 2026-04-29 02:44 | -41.24822 | 173.25593 | 2129 ft | 132 kts | 21° |
| 2026-04-29 02:45 | -41.23949 | 173.26148 | 2439 ft | 142 kts | 21° |
| 2026-04-29 02:45 | -41.23046 | 173.26736 | 2798 ft | 146 kts | 20° |
| 2026-04-29 02:45 | -41.22134 | 173.27346 | 3150 ft | 150 kts | 20° |
| 2026-04-29 02:45 | -41.21177 | 173.27995 | 3512 ft | 154 kts | 20° |
| 2026-04-29 02:46 | -41.20216 | 173.28648 | 3866 ft | 156 kts | 19° |
| 2026-04-29 02:46 | -41.19248 | 173.29304 | 4217 ft | 159 kts | 19° |
| 2026-04-29 02:46 | -41.18271 | 173.30021 | 4568 ft | 164 kts | 25° |
| 2026-04-29 02:46 | -41.17346 | 173.30939 | 4923 ft | 167 kts | 30° |
| 2026-04-29 02:47 | -41.16436 | 173.31900 | 5274 ft | 169 kts | 30° |
| 2026-04-29 02:47 | -41.15517 | 173.32862 | 5628 ft | 169 kts | 30° |
| 2026-04-29 02:47 | -41.14583 | 173.33812 | 5983 ft | 169 kts | 29° |
| 2026-04-29 02:47 | -41.13652 | 173.34759 | 6335 ft | 168 kts | 30° |
| 2026-04-29 02:48 | -41.12825 | 173.35837 | 6667 ft | 175 kts | 55° |
| 2026-04-29 02:48 | -41.12651 | 173.37422 | 7017 ft | 174 kts | 105° |
| 2026-04-29 02:48 | -41.13095 | 173.38881 | 7388 ft | 169 kts | 121° |
| 2026-04-29 02:48 | -41.13631 | 173.40262 | 7738 ft | 169 kts | 123° |
| 2026-04-29 02:49 | -41.14184 | 173.41658 | 8094 ft | 168 kts | 122° |
| 2026-04-29 02:49 | -41.14723 | 173.43032 | 8443 ft | 168 kts | 122° |
| 2026-04-29 02:49 | -41.15262 | 173.44402 | 8789 ft | 168 kts | 121° |
| 2026-04-29 02:49 | -41.15799 | 173.45770 | 9136 ft | 168 kts | 121° |
| 2026-04-29 02:50 | -41.16337 | 173.47153 | 9487 ft | 168 kts | 120° |
| 2026-04-29 02:50 | -41.16862 | 173.48519 | 9815 ft | 167 kts | 120° |
| 2026-04-29 02:50 | -41.17396 | 173.49896 | 9955 ft | 175 kts | 120° |
| 2026-04-29 02:50 | -41.17982 | 173.51408 | 10004 ft | 186 kts | 119° |
| 2026-04-29 02:51 | -41.18569 | 173.52948 | 10008 ft | 194 kts | 119° |
| 2026-04-29 02:51 | -41.19195 | 173.54589 | 10006 ft | 200 kts | 119° |
| 2026-04-29 02:51 | -41.19827 | 173.56246 | 10004 ft | 203 kts | 119° |
| 2026-04-29 02:51 | -41.20464 | 173.57912 | 10002 ft | 205 kts | 119° |
| 2026-04-29 02:52 | -41.21116 | 173.59618 | 10001 ft | 206 kts | 119° |
| 2026-04-29 02:52 | -41.21763 | 173.61316 | 10001 ft | 207 kts | 118° |
| 2026-04-29 02:52 | -41.22406 | 173.63050 | 10001 ft | 207 kts | 118° |
| 2026-04-29 02:52 | -41.23039 | 173.64769 | 10000 ft | 207 kts | 118° |
| 2026-04-29 02:53 | -41.23669 | 173.66485 | 10000 ft | 207 kts | 118° |
| 2026-04-29 02:53 | -41.24303 | 173.68208 | 9998 ft | 208 kts | 118° |
| 2026-04-29 02:53 | -41.24943 | 173.69946 | 10000 ft | 209 kts | 118° |
| 2026-04-29 02:53 | -41.25578 | 173.71668 | 10000 ft | 209 kts | 118° |
| 2026-04-29 02:54 | -41.26225 | 173.73419 | 10000 ft | 210 kts | 118° |
| 2026-04-29 02:54 | -41.26860 | 173.75138 | 10000 ft | 210 kts | 118° |
| 2026-04-29 02:54 | -41.27503 | 173.76878 | 10000 ft | 210 kts | 118° |
| 2026-04-29 02:54 | -41.28148 | 173.78625 | 10000 ft | 210 kts | 118° |
| 2026-04-29 02:55 | -41.28791 | 173.80365 | 10000 ft | 210 kts | 118° |
| 2026-04-29 02:55 | -41.29231 | 173.81556 | 10000 ft | 210 kts | 118° |
| 2026-04-29 02:55 | -41.29888 | 173.83337 | 10000 ft | 210 kts | 118° |
| 2026-04-29 02:55 | -41.30537 | 173.85094 | 10000 ft | 210 kts | 118° |
| 2026-04-29 02:56 | -41.31173 | 173.86819 | 9999 ft | 210 kts | 118° |
| 2026-04-29 02:56 | -41.31828 | 173.88585 | 10000 ft | 211 kts | 118° |
| 2026-04-29 02:56 | -41.32467 | 173.90337 | 10001 ft | 211 kts | 117° |
| 2026-04-29 02:56 | -41.33095 | 173.92089 | 10002 ft | 212 kts | 117° |
| 2026-04-29 02:57 | -41.33730 | 173.93854 | 10003 ft | 212 kts | 117° |
| 2026-04-29 02:57 | -41.34370 | 173.95634 | 10003 ft | 212 kts | 117° |
| 2026-04-29 02:57 | -41.35016 | 173.97398 | 10003 ft | 212 kts | 117° |
| 2026-04-29 02:57 | -41.35658 | 173.99168 | 10003 ft | 213 kts | 117° |
| 2026-04-29 02:58 | -41.36302 | 174.00937 | 10003 ft | 213 kts | 117° |
| 2026-04-29 02:58 | -41.36948 | 174.02720 | 10003 ft | 213 kts | 117° |
| 2026-04-29 02:58 | -41.37595 | 174.04497 | 10003 ft | 213 kts | 117° |
| 2026-04-29 02:58 | -41.38240 | 174.06275 | 10003 ft | 213 kts | 117° |
| 2026-04-29 02:59 | -41.38880 | 174.08042 | 10003 ft | 213 kts | 117° |
| 2026-04-29 02:59 | -41.39524 | 174.09813 | 10004 ft | 213 kts | 117° |
| 2026-04-29 02:59 | -41.40171 | 174.11592 | 9814 ft | 205 kts | 118° |
| 2026-04-29 02:59 | -41.40780 | 174.13261 | 9559 ft | 198 kts | 117° |
| 2026-04-29 03:00 | -41.41368 | 174.14885 | 9305 ft | 192 kts | 117° |
| 2026-04-29 03:00 | -41.41937 | 174.16465 | 9053 ft | 189 kts | 117° |
| 2026-04-29 03:00 | -41.42521 | 174.18016 | 8798 ft | 185 kts | 123° |
| 2026-04-29 03:00 | -41.43474 | 174.19055 | 8530 ft | 172 kts | 168° |
| 2026-04-29 03:01 | -41.44605 | 174.19125 | 8301 ft | 159 kts | 194° |
| 2026-04-29 03:01 | -41.45701 | 174.18979 | 8051 ft | 159 kts | 193° |
| 2026-04-29 03:01 | -41.46817 | 174.18991 | 7801 ft | 162 kts | 184° |
| 2026-04-29 03:01 | -41.47930 | 174.19168 | 7553 ft | 162 kts | 181° |
| 2026-04-29 03:02 | -41.49005 | 174.19098 | 7286 ft | 148 kts | 212° |
| 2026-04-29 03:02 | -41.49623 | 174.18148 | 7039 ft | 131 kts | 257° |
| 2026-04-29 03:02 | -41.49760 | 174.16980 | 6808 ft | 128 kts | 268° |
| 2026-04-29 03:02 | -41.49821 | 174.15794 | 6558 ft | 128 kts | 269° |
| 2026-04-29 03:03 | -41.49878 | 174.14623 | 6311 ft | 128 kts | 268° |
| 2026-04-29 03:03 | -41.49946 | 174.13448 | 6061 ft | 127 kts | 267° |
| 2026-04-29 03:03 | -41.50017 | 174.12263 | 5810 ft | 127 kts | 267° |
| 2026-04-29 03:03 | -41.50088 | 174.11083 | 5559 ft | 127 kts | 267° |
| 2026-04-29 03:04 | -41.50154 | 174.09935 | 5313 ft | 126 kts | 267° |
| 2026-04-29 03:04 | -41.50228 | 174.08756 | 5060 ft | 126 kts | 266° |
| 2026-04-29 03:04 | -41.50308 | 174.07594 | 4810 ft | 125 kts | 266° |
| 2026-04-29 03:04 | -41.50388 | 174.06427 | 4557 ft | 125 kts | 266° |
| 2026-04-29 03:05 | -41.50465 | 174.05295 | 4311 ft | 124 kts | 266° |
| 2026-04-29 03:05 | -41.50544 | 174.04127 | 4057 ft | 124 kts | 266° |
| 2026-04-29 03:05 | -41.50620 | 174.02989 | 3808 ft | 124 kts | 266° |
| 2026-04-29 03:05 | -41.50702 | 174.01849 | 3557 ft | 123 kts | 265° |
| 2026-04-29 03:06 | -41.50783 | 174.00719 | 3308 ft | 123 kts | 266° |
| 2026-04-29 03:06 | -41.50863 | 173.99587 | 3068 ft | 120 kts | 266° |
| 2026-04-29 03:06 | -41.50940 | 173.98573 | 2842 ft | 105 kts | 266° |
| 2026-04-29 03:06 | -41.51014 | 173.97623 | 2573 ft | 100 kts | 269° |
| 2026-04-29 03:07 | -41.51085 | 173.96716 | 2318 ft | 97 kts | 269° |
| 2026-04-29 03:07 | -41.51152 | 173.95828 | 2066 ft | 96 kts | 268° |
| 2026-04-29 03:07 | -41.51219 | 173.94865 | 1630 ft | 120 kts | 271° |
| 2026-04-29 03:07 | -41.51303 | 173.93795 | 1443 ft | 112 kts | 271° |
| 2026-04-29 03:08 | -41.51385 | 173.92784 | 1202 ft | 107 kts | 270° |
| 2026-04-29 03:08 | -41.51456 | 173.91850 | 1000 ft | 91 kts | 268° |
| 2026-04-29 03:08 | -41.51513 | 173.91115 | 804 ft | 74 kts | 270° |
| 2026-04-29 03:08 | -41.51577 | 173.90431 | 593 ft | 74 kts | 266° |
| 2026-04-29 03:09 | -41.51616 | 173.89718 | 393 ft | 78 kts | 269° |
| 2026-04-29 03:09 | -41.51663 | 173.89052 | 300 ft | 73 kts | 261° |
| 2026-04-29 03:09 | -41.51717 | 173.88375 | 186 ft | 69 kts | 270° |
| 2026-04-29 03:09 | -41.51772 | 173.87774 | 115 ft | 59 kts | 272° |
| 2026-04-29 03:10 | -41.51736 | 173.87511 | 114 ft | 0 kts | 314° |